ADDS METAR Data INFO
IDs: Format: Raw Decoded Include TAF

Data at: 1718 UTC 23 Oct 2017

KMFV 231655Z AUTO 15008KT 10SM BKN050 25/18 A3015 RMK AO2 T02480180
KMFV 231635Z AUTO 14010KT 10SM CLR 26/18 A3016 RMK AO2 T02570181
KMFV 231615Z AUTO 13008KT 10SM CLR 25/19 A3016 RMK AO2 T02480185
KMFV 231555Z AUTO 13009KT 10SM CLR 24/19 A3018 RMK AO2 T02380186
KMFV 231535Z AUTO 13007KT 10SM CLR 24/19 A3018 RMK AO2 T02350186
KMFV 231515Z AUTO 14009KT 10SM CLR 23/19 A3019 RMK AO2 T02340190
KMFV 231455Z AUTO 13005KT 10SM CLR 23/19 A3020 RMK AO2 T02320191
KMFV 231435Z AUTO 13006KT 10SM SCT055 23/19 A3021 RMK AO2 T02280192
KMFV 231415Z AUTO 14006KT 10SM BKN055 23/20 A3022 RMK AO2 T02250196
KMFV 231355Z AUTO 13004KT 10SM SCT055 22/20 A3023 RMK AO2 T02210198
KMFV 231335Z AUTO 14005KT 10SM SCT055 22/20 A3023 RMK AO2 T02160202
KMFV 231315Z AUTO 13004KT 10SM BKN055 21/20 A3023 RMK AO2 T02090202
KMFV 231255Z AUTO 12003KT 10SM SCT038 SCT044 OVC055 20/20 A3024 RMK AO2 T01990196
KMFV 231235Z AUTO 13004KT 10SM SCT038 BKN055 20/20 A3024 RMK AO2 T01960196
KMFV 231215Z AUTO 12004KT 10SM SCT055 19/19 A3024 RMK AO2 T01900190
KMFV 231155Z AUTO 12005KT 2SM BR CLR 17/17 A3024 RMK AO2 VIS 3/4V5 T01710170 10186 20152
KMFV 231135Z AUTO 00000KT 1/4SM FG BKN004 17/16 A3024 RMK AO2 T01650164
KMFV 231115Z AUTO 00000KT 1/4SM FG BKN004 16/16 A3024 RMK AO2 T01640163
KMFV 231055Z AUTO 00000KT 5SM BR SCT050 17/17 A3024 RMK AO2 T01740173
KMFV 231035Z AUTO 12003KT 4SM BR SCT055 18/17 A3025 RMK AO2 T01750174
KMFV 231015Z AUTO 00000KT 10SM SCT046 OVC055 18/18 A3025 RMK AO2 T01830182
KMFV 230955Z AUTO 00000KT 1/2SM FG OVC044 17/17 A3025 RMK AO2 T01680166
KMFV 230935Z AUTO 00000KT 10SM SCT055 18/18 A3026 RMK AO2 T01810179
KMFV 230915Z AUTO 12003KT 10SM SCT044 BKN055 18/18 A3026 RMK AO2 T01790178
KMFV 230855Z AUTO 00000KT 4SM BR BKN044 OVC055 16/16 A3026 RMK AO2 T01630162
KMFV 230835Z AUTO 00000KT 10SM OVC049 17/17 A3027 RMK AO2 T01680167
KMFV 230815Z AUTO 00000KT 2 1/2SM BR BKN049 16/16 A3027 RMK AO2 VIS 1V5 T01600159
KMFV 230755Z AUTO 12003KT 7SM BKN049 16/16 A3027 RMK AO2 T01640163
KMFV 230735Z AUTO 11003KT 2 1/2SM BR OVC049 16/16 A3027 RMK AO2 T01580157
KMFV 230715Z AUTO 00000KT 3SM BR SCT006 SCT035 BKN049 16/15 A3028 RMK AO2 T01550154
KMFV 230655Z AUTO 12003KT 1SM BR BKN041 BKN049 16/16 A3028 RMK AO2 T01560155
KMFV 230635Z AUTO 00000KT 10SM SCT039 SCT049 16/16 A3028 RMK AO2 T01600159
KMFV 230615Z AUTO 13003KT 7SM SCT037 SCT047 17/16 A3028 RMK AO2 T01650164
KMFV 230555Z AUTO 12004KT 10SM BKN047 16/16 A3028 RMK AO2 T01590156 10185 20153
KMFV 230535Z AUTO 12003KT 7SM SCT047 17/17 A3029 RMK AO2 T01670167
KMFV 230515Z AUTO 12003KT 1 3/4SM BR VV007 17/17 A3030 RMK AO2 T01690168
KMFV 230455Z AUTO 12003KT 10SM CLR 18/17 A3030 RMK AO2 T01760174 402370091
KMFV 230435Z AUTO 11003KT 10SM CLR 19/18 A3030 RMK AO2 T01850182
KMFV 230415Z AUTO 11004KT 10SM CLR 18/18 A3030 RMK AO2 T01820180
KMFV 230355Z AUTO 11003KT 10SM SCT039 SCT045 18/17 A3031 RMK AO2 T01750174
KMFV 230335Z AUTO 00000KT 10SM BKN039 BKN045 16/15 A3032 RMK AO2 T01550151
KMFV 230315Z AUTO 00000KT 7SM OVC037 16/16 A3033 RMK AO2 T01570155
KMFV 230255Z AUTO 00000KT 2SM BR SCT037 16/16 A3033 RMK AO2 T01590157
KMFV 230235Z AUTO 00000KT 10SM CLR 16/16 A3033 RMK AO2 T01630161
KMFV 230215Z AUTO 11003KT 10SM CLR 17/17 A3033 RMK AO2 T01710169
KMFV 230155Z AUTO 11003KT 10SM CLR 16/16 A3034 RMK AO2 T01610158
KMFV 230135Z AUTO 00000KT 10SM CLR 17/16 A3034 RMK AO2 T01670164
KMFV 230115Z AUTO 12004KT 10SM CLR 16/16 A3033 RMK AO2 T01610158
KMFV 230055Z AUTO 12003KT 10SM CLR 16/16 A3034 RMK AO2 T01640161
KMFV 230035Z AUTO 00000KT 10SM CLR 17/16 A3033 RMK AO2 T01680164
KMFV 230015Z AUTO 00000KT 10SM CLR 18/17 A3033 RMK AO2 T01770171
KMFV 222355Z AUTO 00000KT 10SM SCT044 18/17 A3033 RMK AO2 T01780173 10237 20172
KMFV 222335Z AUTO 09003KT 10SM SCT044 17/17 A3033 RMK AO2 T01730167
KMFV 222315Z AUTO 00000KT 10SM SCT044 18/17 A3033 RMK AO2 T01820173
KMFV 222255Z AUTO 11003KT 10SM CLR 18/17 A3033 RMK AO2 T01800169
KMFV 222235Z AUTO 00000KT 10SM CLR 19/17 A3033 RMK AO2 T01850171
KMFV 222215Z AUTO 12003KT 10SM CLR 19/17 A3033 RMK AO2 T01910171
KMFV 222155Z AUTO 11003KT 10SM CLR 20/17 A3033 RMK AO2 T01990168
KMFV 222135Z AUTO 11004KT 10SM CLR 21/17 A3033 RMK AO2 T02060167
KMFV 222115Z AUTO 11003KT 10SM CLR 21/16 A3033 RMK AO2 T02120164
KMFV 222055Z AUTO 12005KT 10SM CLR 22/16 A3033 RMK AO2 T02180159
KMFV 222035Z AUTO 12006KT 10SM CLR 22/13 A3033 RMK AO2 T02220134
KMFV 222015Z AUTO 12003KT 10SM CLR 23/15 A3033 RMK AO2 T02260147
KMFV 221955Z AUTO 12005KT 10SM CLR 23/15 A3033 RMK AO2 T02290151
KMFV 221935Z AUTO 11003KT 10SM CLR 23/16 A3034 RMK AO2 T02320155
KMFV 221915Z AUTO 12003KT 10SM CLR 24/16 A3034 RMK AO2 T02360156
KMFV 221855Z AUTO 11003KT 10SM CLR 23/16 A3034 RMK AO2 T02340156
KMFV 221835Z AUTO 14005KT 10SM CLR 23/15 A3034 RMK AO2 T02310153
KMFV 221815Z AUTO 12004KT 7SM CLR 23/15 A3035 RMK AO2 T02290152
KMFV 221755Z AUTO 00000KT 10SM CLR 24/15 A3035 RMK AO2 T02350150 10237 20106
KMFV 221735Z AUTO 13004KT 10SM CLR 23/15 A3036 RMK AO2 T02320146
KMFV 221715Z AUTO 14005KT 10SM CLR 23/15 A3036 RMK AO2 T02330152
KMFV 221655Z AUTO 14004KT 10SM CLR 23/16 A3037 RMK AO2 T02310155
KMFV 221635Z AUTO 12004KT 10SM CLR 23/15 A3038 RMK AO2 T02330148
KMFV 221615Z AUTO 15007KT 10SM CLR 23/15 A3038 RMK AO2 T02280153
KMFV 221555Z AUTO 16005KT 10SM CLR 23/15 A3038 RMK AO2 T02280154
KMFV 221535Z AUTO 13006KT 10SM CLR 23/15 A3039 RMK AO2 T02290153
KMFV 221515Z AUTO 13006KT 10SM CLR 22/15 A3039 RMK AO2 T02200151
KMFV 221455Z AUTO 14007KT 10SM CLR 22/15 A3039 RMK AO2 T02200152
KMFV 221435Z AUTO 13006KT 10SM CLR 22/15 A3040 RMK AO2 T02180154
KMFV 221415Z AUTO 11003KT 10SM CLR 21/17 A3040 RMK AO2 T02120165
KMFV 221355Z AUTO 14003KT 10SM CLR 21/17 A3040 RMK AO2 T02060173
KMFV 221335Z AUTO 00000KT 10SM CLR 20/17 A3040 RMK AO2 T01950172
KMFV 221315Z AUTO 00000KT 10SM CLR 18/17 A3040 RMK AO2 T01800172
KMFV 221255Z AUTO 00000KT 7SM CLR 16/16 A3040 RMK AO2 T01580155
KMFV 221235Z AUTO 00000KT 5SM BR SCT002 14/14 A3040 RMK AO2 T01390137
KMFV 221215Z AUTO 00000KT 7SM OVC002 12/12 A3039 RMK AO2 T01230121
KMFV 221155Z AUTO 00000KT 10SM OVC002 11/10 A3039 RMK AO2 T01050104 10117 20091
KMFV 221135Z AUTO 00000KT 7SM OVC002 10/09 A3038 RMK AO2 T00950094
KMFV 221115Z AUTO 00000KT 3SM BR OVC002 10/10 A3038 RMK AO2 T00980097
KMFV 221055Z AUTO 00000KT 7SM OVC002 09/09 A3037 RMK AO2 T00940093
KMFV 221035Z AUTO 00000KT 3/4SM BR OVC002 10/10 A3037 RMK AO2 T01000098
KMFV 221015Z AUTO 00000KT 1/2SM FG OVC002 10/10 A3037 RMK AO2 T00980097
KMFV 220955Z AUTO 00000KT 1/2SM FG BKN002 09/09 A3037 RMK AO2 T00920091
KMFV 220935Z AUTO 00000KT 10SM CLR 10/10 A3036 RMK AO2 T00990098
KMFV 220915Z AUTO 00000KT 1 1/2SM BR VV007 10/10 A3035 RMK AO2 VIS 1/2V5 T00980097
KMFV 220855Z AUTO 00000KT 1/2SM FG VV005 10/10 A3035 RMK AO2 T01010100
KMFV 220835Z AUTO 00000KT 1 1/2SM BR VV007 10/10 A3034 RMK AO2 VIS 1/2V5 T00970096
KMFV 220815Z AUTO 00000KT 3/4SM BR VV005 11/11 A3034 RMK AO2 T01060105
KMFV 220755Z AUTO 00000KT 1 3/4SM BR VV007 11/11 A3034 RMK AO2 T01060105
KMFV 220735Z AUTO 00000KT 1 1/4SM BR VV007 10/10 A3034 RMK AO2 T01000099
KMFV 220715Z AUTO 00000KT 1SM BR VV007 10/10 A3034 RMK AO2 T01010100
KMFV 220655Z AUTO 00000KT 10SM CLR 12/12 A3034 RMK AO2 T01170116
KMFV 220635Z AUTO 12003KT 7SM CLR 11/11 A3034 RMK AO2 T01070106
KMFV 220615Z AUTO 00000KT 10SM CLR 11/11 A3034 RMK AO2 T01130112
KMFV 220555Z AUTO 00000KT 1SM BR VV007 11/11 A3035 RMK AO2 VIS 1/2V5 T01140113 10143 20110
KMFV 220535Z AUTO 00000KT 1/2SM FG BKN002 11/11 A3035 RMK AO2 T01110110